sensor_id;sensor_type;location;lat;lon;timestamp;temperature;humidity
21770;DHT22;11046;49.558;8.674;2023-01-29T00:02:20;0.20;94.20
21770;DHT22;11046;49.558;8.674;2023-01-29T00:05:21;0.20;94.20
21770;DHT22;11046;49.558;8.674;2023-01-29T00:08:21;0.10;94.20
21770;DHT22;11046;49.558;8.674;2023-01-29T00:11:22;0.10;94.10
21770;DHT22;11046;49.558;8.674;2023-01-29T00:14:24;0.10;94.10
21770;DHT22;11046;49.558;8.674;2023-01-29T00:17:28;0.10;94.00
21770;DHT22;11046;49.558;8.674;2023-01-29T00:20:29;0.10;94.10
21770;DHT22;11046;49.558;8.674;2023-01-29T00:23:30;0.10;94.10
21770;DHT22;11046;49.558;8.674;2023-01-29T00:26:31;0.10;94.10
21770;DHT22;11046;49.558;8.674;2023-01-29T00:29:31;0.10;94.00
21770;DHT22;11046;49.558;8.674;2023-01-29T00:32:32;0.20;93.90
21770;DHT22;11046;49.558;8.674;2023-01-29T00:35:32;0.20;93.80
21770;DHT22;11046;49.558;8.674;2023-01-29T00:38:33;0.20;93.80
21770;DHT22;11046;49.558;8.674;2023-01-29T00:41:35;0.30;93.80
21770;DHT22;11046;49.558;8.674;2023-01-29T00:44:55;0.20;93.80
21770;DHT22;11046;49.558;8.674;2023-01-29T00:47:58;0.20;93.80
21770;DHT22;11046;49.558;8.674;2023-01-29T00:50:59;0.20;93.80
21770;DHT22;11046;49.558;8.674;2023-01-29T00:54:00;0.20;93.90
21770;DHT22;11046;49.558;8.674;2023-01-29T00:57:02;0.10;94.20
21770;DHT22;11046;49.558;8.674;2023-01-29T01:00:05;0.00;93.90
21770;DHT22;11046;49.558;8.674;2023-01-29T01:03:06;0.00;93.90
21770;DHT22;11046;49.558;8.674;2023-01-29T01:06:09;0.10;93.80
21770;DHT22;11046;49.558;8.674;2023-01-29T01:09:10;0.20;93.80
21770;DHT22;11046;49.558;8.674;2023-01-29T01:12:29;0.10;93.80
21770;DHT22;11046;49.558;8.674;2023-01-29T01:15:33;0.20;93.70
21770;DHT22;11046;49.558;8.674;2023-01-29T01:18:34;0.20;93.70
21770;DHT22;11046;49.558;8.674;2023-01-29T01:21:37;0.20;93.70
21770;DHT22;11046;49.558;8.674;2023-01-29T01:24:38;0.10;93.80
21770;DHT22;11046;49.558;8.674;2023-01-29T01:27:38;0.20;93.80
21770;DHT22;11046;49.558;8.674;2023-01-29T01:30:40;0.20;93.70
21770;DHT22;11046;49.558;8.674;2023-01-29T01:33:41;0.20;93.70
21770;DHT22;11046;49.558;8.674;2023-01-29T01:36:42;0.20;93.80
21770;DHT22;11046;49.558;8.674;2023-01-29T01:39:42;0.30;93.70
21770;DHT22;11046;49.558;8.674;2023-01-29T01:42:46;0.30;93.70
21770;DHT22;11046;49.558;8.674;2023-01-29T01:45:46;0.20;93.60
21770;DHT22;11046;49.558;8.674;2023-01-29T01:52:04;0.10;93.60
21770;DHT22;11046;49.558;8.674;2023-01-29T01:55:06;0.10;93.60
21770;DHT22;11046;49.558;8.674;2023-01-29T01:58:13;0.10;93.70
21770;DHT22;11046;49.558;8.674;2023-01-29T02:01:16;0.00;93.70
21770;DHT22;11046;49.558;8.674;2023-01-29T02:04:20;0.00;93.70
21770;DHT22;11046;49.558;8.674;2023-01-29T02:07:42;0.10;93.70
21770;DHT22;11046;49.558;8.674;2023-01-29T02:11:02;0.10;93.60
21770;DHT22;11046;49.558;8.674;2023-01-29T02:14:03;0.10;93.60
21770;DHT22;11046;49.558;8.674;2023-01-29T02:17:08;0.10;93.70
21770;DHT22;11046;49.558;8.674;2023-01-29T02:30:00;0.00;93.70
21770;DHT22;11046;49.558;8.674;2023-01-29T02:33:25;-0.10;93.60
21770;DHT22;11046;49.558;8.674;2023-01-29T02:36:50;-0.10;93.60
21770;DHT22;11046;49.558;8.674;2023-01-29T02:40:06;-0.20;93.70
21770;DHT22;11046;49.558;8.674;2023-01-29T02:43:33;-0.10;93.70
21770;DHT22;11046;49.558;8.674;2023-01-29T02:46:56;-0.10;93.50
21770;DHT22;11046;49.558;8.674;2023-01-29T02:53:16;-0.20;93.60
21770;DHT22;11046;49.558;8.674;2023-01-29T02:56:24;-0.20;93.50
21770;DHT22;11046;49.558;8.674;2023-01-29T02:59:53;-0.20;93.60
21770;DHT22;11046;49.558;8.674;2023-01-29T03:03:20;-0.20;93.50
21770;DHT22;11046;49.558;8.674;2023-01-29T03:06:35;-0.20;93.40
21770;DHT22;11046;49.558;8.674;2023-01-29T03:09:40;-0.30;93.50
21770;DHT22;11046;49.558;8.674;2023-01-29T03:12:43;-0.30;93.60
21770;DHT22;11046;49.558;8.674;2023-01-29T03:15:49;-0.40;93.60
21770;DHT22;11046;49.558;8.674;2023-01-29T03:19:37;-0.50;93.60
21770;DHT22;11046;49.558;8.674;2023-01-29T03:22:51;-0.50;93.60
21770;DHT22;11046;49.558;8.674;2023-01-29T03:25:57;-0.50;93.60
21770;DHT22;11046;49.558;8.674;2023-01-29T03:29:17;-0.50;94.00
21770;DHT22;11046;49.558;8.674;2023-01-29T03:32:37;-0.60;93.70
21770;DHT22;11046;49.558;8.674;2023-01-29T03:35:42;-0.70;93.80
21770;DHT22;11046;49.558;8.674;2023-01-29T03:38:48;-0.80;93.90
21770;DHT22;11046;49.558;8.674;2023-01-29T03:49:19;-0.70;94.00
21770;DHT22;11046;49.558;8.674;2023-01-29T03:52:26;-0.70;93.90
21770;DHT22;11046;49.558;8.674;2023-01-29T03:55:51;-0.60;94.00
21770;DHT22;11046;49.558;8.674;2023-01-29T03:59:07;-0.60;94.00
21770;DHT22;11046;49.558;8.674;2023-01-29T04:02:42;-0.60;94.00
21770;DHT22;11046;49.558;8.674;2023-01-29T04:05:53;-0.70;94.00
21770;DHT22;11046;49.558;8.674;2023-01-29T04:09:13;-0.80;94.10
21770;DHT22;11046;49.558;8.674;2023-01-29T04:12:26;-0.70;94.10
21770;DHT22;11046;49.558;8.674;2023-01-29T04:15:30;-0.70;94.10
21770;DHT22;11046;49.558;8.674;2023-01-29T04:18:33;-0.70;94.20
21770;DHT22;11046;49.558;8.674;2023-01-29T04:21:43;-0.60;94.10
21770;DHT22;11046;49.558;8.674;2023-01-29T04:24:45;-0.60;94.10
21770;DHT22;11046;49.558;8.674;2023-01-29T04:31:08;-0.50;94.10
21770;DHT22;11046;49.558;8.674;2023-01-29T04:34:27;-0.50;94.10
21770;DHT22;11046;49.558;8.674;2023-01-29T04:37:42;-0.50;94.00
21770;DHT22;11046;49.558;8.674;2023-01-29T04:41:07;-0.50;94.10
21770;DHT22;11046;49.558;8.674;2023-01-29T04:44:46;-0.60;94.10
21770;DHT22;11046;49.558;8.674;2023-01-29T04:47:53;-0.50;94.10
21770;DHT22;11046;49.558;8.674;2023-01-29T04:51:12;-0.60;94.10
21770;DHT22;11046;49.558;8.674;2023-01-29T04:54:36;-0.60;94.10
21770;DHT22;11046;49.558;8.674;2023-01-29T04:57:52;-0.60;94.10
21770;DHT22;11046;49.558;8.674;2023-01-29T05:00:54;-0.60;94.10
21770;DHT22;11046;49.558;8.674;2023-01-29T05:03:56;-0.60;94.10
21770;DHT22;11046;49.558;8.674;2023-01-29T05:07:04;-0.60;94.10
21770;DHT22;11046;49.558;8.674;2023-01-29T05:10:08;-0.70;94.10
21770;DHT22;11046;49.558;8.674;2023-01-29T05:13:11;-0.80;94.10
21770;DHT22;11046;49.558;8.674;2023-01-29T05:16:19;-0.90;94.30
21770;DHT22;11046;49.558;8.674;2023-01-29T05:19:21;-0.90;94.30
21770;DHT22;11046;49.558;8.674;2023-01-29T05:22:22;-0.90;94.30
21770;DHT22;11046;49.558;8.674;2023-01-29T05:25:26;-0.90;94.20
21770;DHT22;11046;49.558;8.674;2023-01-29T05:28:27;-0.90;94.30
21770;DHT22;11046;49.558;8.674;2023-01-29T05:31:27;-0.90;94.30
21770;DHT22;11046;49.558;8.674;2023-01-29T05:34:28;-1.00;94.40
21770;DHT22;11046;49.558;8.674;2023-01-29T05:37:29;-0.90;94.50
21770;DHT22;11046;49.558;8.674;2023-01-29T05:40:29;-0.90;94.50
21770;DHT22;11046;49.558;8.674;2023-01-29T05:43:30;-0.90;94.40
21770;DHT22;11046;49.558;8.674;2023-01-29T05:46:31;-0.90;94.40
21770;DHT22;11046;49.558;8.674;2023-01-29T05:49:31;-0.80;94.40
21770;DHT22;11046;49.558;8.674;2023-01-29T05:52:32;-0.80;94.50
21770;DHT22;11046;49.558;8.674;2023-01-29T05:55:32;-0.90;94.50
21770;DHT22;11046;49.558;8.674;2023-01-29T05:58:33;-0.90;94.50
21770;DHT22;11046;49.558;8.674;2023-01-29T06:01:34;-0.90;94.60
21770;DHT22;11046;49.558;8.674;2023-01-29T06:04:34;-0.90;94.50
21770;DHT22;11046;49.558;8.674;2023-01-29T06:07:35;-0.90;94.60
21770;DHT22;11046;49.558;8.674;2023-01-29T06:10:35;-0.80;94.60
21770;DHT22;11046;49.558;8.674;2023-01-29T06:13:36;-0.90;94.50
21770;DHT22;11046;49.558;8.674;2023-01-29T06:16:37;-0.90;94.50
21770;DHT22;11046;49.558;8.674;2023-01-29T06:19:37;-0.90;94.50
21770;DHT22;11046;49.558;8.674;2023-01-29T06:22:38;-0.90;94.40
21770;DHT22;11046;49.558;8.674;2023-01-29T06:25:39;-1.00;94.50
21770;DHT22;11046;49.558;8.674;2023-01-29T06:28:40;-1.00;94.50
21770;DHT22;11046;49.558;8.674;2023-01-29T06:31:40;-1.00;94.60
21770;DHT22;11046;49.558;8.674;2023-01-29T06:34:41;-1.00;94.70
21770;DHT22;11046;49.558;8.674;2023-01-29T06:37:41;-1.00;94.70
21770;DHT22;11046;49.558;8.674;2023-01-29T06:40:42;-1.10;94.60
21770;DHT22;11046;49.558;8.674;2023-01-29T06:43:43;-1.10;94.60
21770;DHT22;11046;49.558;8.674;2023-01-29T06:46:44;-1.10;94.60
21770;DHT22;11046;49.558;8.674;2023-01-29T06:49:44;-1.10;94.60
21770;DHT22;11046;49.558;8.674;2023-01-29T06:52:45;-1.10;94.70
21770;DHT22;11046;49.558;8.674;2023-01-29T06:55:52;-1.10;94.70
21770;DHT22;11046;49.558;8.674;2023-01-29T06:58:53;-1.10;94.70
21770;DHT22;11046;49.558;8.674;2023-01-29T07:01:54;-1.10;94.70
21770;DHT22;11046;49.558;8.674;2023-01-29T07:04:54;-1.10;94.60
21770;DHT22;11046;49.558;8.674;2023-01-29T07:07:55;-1.10;94.60
21770;DHT22;11046;49.558;8.674;2023-01-29T07:10:59;-1.10;94.60
21770;DHT22;11046;49.558;8.674;2023-01-29T07:14:00;-1.10;94.90
21770;DHT22;11046;49.558;8.674;2023-01-29T07:17:01;-1.00;94.60
21770;DHT22;11046;49.558;8.674;2023-01-29T07:20:01;-1.00;94.60
21770;DHT22;11046;49.558;8.674;2023-01-29T07:23:02;-1.10;94.60
21770;DHT22;11046;49.558;8.674;2023-01-29T07:26:04;-1.00;94.70
21770;DHT22;11046;49.558;8.674;2023-01-29T07:29:05;-1.00;94.70
21770;DHT22;11046;49.558;8.674;2023-01-29T07:32:05;-1.10;94.70
21770;DHT22;11046;49.558;8.674;2023-01-29T07:35:07;-1.10;94.80
21770;DHT22;11046;49.558;8.674;2023-01-29T07:38:09;-1.10;94.80
21770;DHT22;11046;49.558;8.674;2023-01-29T07:41:10;-1.00;94.80
21770;DHT22;11046;49.558;8.674;2023-01-29T07:44:11;-1.00;94.70
21770;DHT22;11046;49.558;8.674;2023-01-29T07:47:12;-1.00;94.80
21770;DHT22;11046;49.558;8.674;2023-01-29T07:50:12;-1.00;94.80
21770;DHT22;11046;49.558;8.674;2023-01-29T07:53:14;-1.00;94.80
21770;DHT22;11046;49.558;8.674;2023-01-29T07:56:14;-0.90;94.80
21770;DHT22;11046;49.558;8.674;2023-01-29T07:59:15;-0.90;94.80
21770;DHT22;11046;49.558;8.674;2023-01-29T08:02:16;-0.90;94.80
21770;DHT22;11046;49.558;8.674;2023-01-29T08:05:17;-1.00;94.80
21770;DHT22;11046;49.558;8.674;2023-01-29T08:08:18;-1.00;94.90
21770;DHT22;11046;49.558;8.674;2023-01-29T08:11:18;-0.90;94.90
21770;DHT22;11046;49.558;8.674;2023-01-29T08:14:19;-0.90;94.90
21770;DHT22;11046;49.558;8.674;2023-01-29T08:17:19;-0.80;94.90
21770;DHT22;11046;49.558;8.674;2023-01-29T08:20:21;-0.80;94.90
21770;DHT22;11046;49.558;8.674;2023-01-29T08:23:22;-0.70;94.90
21770;DHT22;11046;49.558;8.674;2023-01-29T08:26:22;-0.60;94.90
21770;DHT22;11046;49.558;8.674;2023-01-29T08:29:25;-0.50;94.90
21770;DHT22;11046;49.558;8.674;2023-01-29T08:32:26;-0.40;95.00
21770;DHT22;11046;49.558;8.674;2023-01-29T08:35:26;-0.20;95.00
21770;DHT22;11046;49.558;8.674;2023-01-29T08:38:27;-0.10;94.80
21770;DHT22;11046;49.558;8.674;2023-01-29T08:41:27;0.00;94.80
21770;DHT22;11046;49.558;8.674;2023-01-29T08:44:28;0.00;94.80
21770;DHT22;11046;49.558;8.674;2023-01-29T08:47:28;0.10;94.80
21770;DHT22;11046;49.558;8.674;2023-01-29T08:50:29;0.20;94.80
21770;DHT22;11046;49.558;8.674;2023-01-29T08:53:31;0.40;94.80
21770;DHT22;11046;49.558;8.674;2023-01-29T08:56:32;0.60;94.80
21770;DHT22;11046;49.558;8.674;2023-01-29T08:59:32;0.80;94.90
21770;DHT22;11046;49.558;8.674;2023-01-29T09:02:33;1.00;94.90
21770;DHT22;11046;49.558;8.674;2023-01-29T09:05:35;1.30;94.90
21770;DHT22;11046;49.558;8.674;2023-01-29T09:08:35;1.70;94.90
21770;DHT22;11046;49.558;8.674;2023-01-29T09:11:36;1.90;94.60
21770;DHT22;11046;49.558;8.674;2023-01-29T09:14:38;2.10;94.50
21770;DHT22;11046;49.558;8.674;2023-01-29T09:17:39;2.30;94.30
21770;DHT22;11046;49.558;8.674;2023-01-29T09:20:40;2.50;94.10
21770;DHT22;11046;49.558;8.674;2023-01-29T09:23:41;2.70;94.00
21770;DHT22;11046;49.558;8.674;2023-01-29T09:26:41;2.80;93.60
21770;DHT22;11046;49.558;8.674;2023-01-29T09:29:42;2.70;93.40
21770;DHT22;11046;49.558;8.674;2023-01-29T09:32:42;2.60;93.50
21770;DHT22;11046;49.558;8.674;2023-01-29T09:35:43;2.50;93.70
21770;DHT22;11046;49.558;8.674;2023-01-29T09:38:47;2.60;93.70
21770;DHT22;11046;49.558;8.674;2023-01-29T09:41:58;2.60;93.20
21770;DHT22;11046;49.558;8.674;2023-01-29T09:45:11;2.40;93.00
21770;DHT22;11046;49.558;8.674;2023-01-29T09:48:13;2.20;93.00
21770;DHT22;11046;49.558;8.674;2023-01-29T09:51:25;2.20;93.20
21770;DHT22;11046;49.558;8.674;2023-01-29T09:54:31;2.20;93.20
21770;DHT22;11046;49.558;8.674;2023-01-29T09:57:49;2.10;93.20
21770;DHT22;11046;49.558;8.674;2023-01-29T10:04:37;1.90;93.10
21770;DHT22;11046;49.558;8.674;2023-01-29T10:08:11;1.90;93.10
21770;DHT22;11046;49.558;8.674;2023-01-29T10:11:39;1.90;93.10
21770;DHT22;11046;49.558;8.674;2023-01-29T10:18:40;1.90;92.90
21770;DHT22;11046;49.558;8.674;2023-01-29T10:25:43;1.80;93.10
21770;DHT22;11046;49.558;8.674;2023-01-29T10:28:48;1.90;93.20
21770;DHT22;11046;49.558;8.674;2023-01-29T10:31:54;2.00;93.30
21770;DHT22;11046;49.558;8.674;2023-01-29T10:35:16;2.00;93.00
21770;DHT22;11046;49.558;8.674;2023-01-29T10:51:51;1.80;92.70
21770;DHT22;11046;49.558;8.674;2023-01-29T10:58:10;2.00;92.80
21770;DHT22;11046;49.558;8.674;2023-01-29T11:01:14;2.00;92.60
21770;DHT22;11046;49.558;8.674;2023-01-29T11:04:15;2.10;92.70
21770;DHT22;11046;49.558;8.674;2023-01-29T11:07:17;2.10;92.70
21770;DHT22;11046;49.558;8.674;2023-01-29T11:10:21;2.20;92.80
21770;DHT22;11046;49.558;8.674;2023-01-29T11:13:28;2.30;92.70
21770;DHT22;11046;49.558;8.674;2023-01-29T11:16:30;2.30;92.50
21770;DHT22;11046;49.558;8.674;2023-01-29T11:19:41;2.10;92.30
21770;DHT22;11046;49.558;8.674;2023-01-29T11:22:52;2.10;92.50
21770;DHT22;11046;49.558;8.674;2023-01-29T11:25:55;2.20;92.50
21770;DHT22;11046;49.558;8.674;2023-01-29T11:28:57;2.20;92.40
21770;DHT22;11046;49.558;8.674;2023-01-29T11:31:58;2.30;92.40
21770;DHT22;11046;49.558;8.674;2023-01-29T11:41:16;2.20;92.10
21770;DHT22;11046;49.558;8.674;2023-01-29T11:44:29;2.20;91.90
21770;DHT22;11046;49.558;8.674;2023-01-29T11:47:30;2.10;91.70
21770;DHT22;11046;49.558;8.674;2023-01-29T11:50:32;2.10;91.90
21770;DHT22;11046;49.558;8.674;2023-01-29T11:56:42;2.10;91.90
21770;DHT22;11046;49.558;8.674;2023-01-29T11:59:45;2.10;91.90
21770;DHT22;11046;49.558;8.674;2023-01-29T12:06:06;2.00;91.80
21770;DHT22;11046;49.558;8.674;2023-01-29T12:09:15;2.10;91.80
21770;DHT22;11046;49.558;8.674;2023-01-29T12:15:31;2.10;91.70
21770;DHT22;11046;49.558;8.674;2023-01-29T12:18:35;2.00;91.50
21770;DHT22;11046;49.558;8.674;2023-01-29T12:21:46;1.90;91.60
21770;DHT22;11046;49.558;8.674;2023-01-29T12:25:08;2.00;91.80
21770;DHT22;11046;49.558;8.674;2023-01-29T12:28:30;2.10;91.70
21770;DHT22;11046;49.558;8.674;2023-01-29T12:31:59;2.30;91.70
21770;DHT22;11046;49.558;8.674;2023-01-29T12:38:16;2.30;91.50
21770;DHT22;11046;49.558;8.674;2023-01-29T12:41:27;2.40;91.60
21770;DHT22;11046;49.558;8.674;2023-01-29T12:44:38;2.40;91.50
21770;DHT22;11046;49.558;8.674;2023-01-29T12:50:49;2.40;91.60
21770;DHT22;11046;49.558;8.674;2023-01-29T12:53:58;2.60;91.70
21770;DHT22;11046;49.558;8.674;2023-01-29T12:57:03;2.60;91.70
21770;DHT22;11046;49.558;8.674;2023-01-29T13:00:20;2.80;91.70
21770;DHT22;11046;49.558;8.674;2023-01-29T13:03:48;2.80;91.30
21770;DHT22;11046;49.558;8.674;2023-01-29T13:06:51;2.70;91.20
21770;DHT22;11046;49.558;8.674;2023-01-29T13:10:00;2.40;91.10
21770;DHT22;11046;49.558;8.674;2023-01-29T13:13:26;2.30;91.20
21770;DHT22;11046;49.558;8.674;2023-01-29T13:16:35;2.30;91.40
21770;DHT22;11046;49.558;8.674;2023-01-29T13:19:42;2.30;91.40
21770;DHT22;11046;49.558;8.674;2023-01-29T13:22:45;2.40;91.40
21770;DHT22;11046;49.558;8.674;2023-01-29T13:25:53;2.50;91.20
21770;DHT22;11046;49.558;8.674;2023-01-29T13:28:54;2.50;91.10
21770;DHT22;11046;49.558;8.674;2023-01-29T13:31:56;2.50;91.00
21770;DHT22;11046;49.558;8.674;2023-01-29T13:35:02;2.40;91.10
21770;DHT22;11046;49.558;8.674;2023-01-29T13:38:04;2.40;91.10
21770;DHT22;11046;49.558;8.674;2023-01-29T13:41:06;2.30;91.20
21770;DHT22;11046;49.558;8.674;2023-01-29T13:44:37;2.40;91.30
21770;DHT22;11046;49.558;8.674;2023-01-29T13:47:39;2.60;91.10
21770;DHT22;11046;49.558;8.674;2023-01-29T13:50:41;2.60;90.90
21770;DHT22;11046;49.558;8.674;2023-01-29T13:53:43;2.50;90.80
21770;DHT22;11046;49.558;8.674;2023-01-29T13:59:56;2.60;90.80
21770;DHT22;11046;49.558;8.674;2023-01-29T14:06:04;2.50;90.70
21770;DHT22;11046;49.558;8.674;2023-01-29T14:09:31;2.40;90.70
21770;DHT22;11046;49.558;8.674;2023-01-29T14:12:36;2.40;90.80
21770;DHT22;11046;49.558;8.674;2023-01-29T14:15:37;2.40;90.70
21770;DHT22;11046;49.558;8.674;2023-01-29T14:21:52;2.20;90.70
21770;DHT22;11046;49.558;8.674;2023-01-29T14:25:02;2.20;90.80
21770;DHT22;11046;49.558;8.674;2023-01-29T14:28:19;2.10;90.80
21770;DHT22;11046;49.558;8.674;2023-01-29T14:31:59;2.10;90.80
21770;DHT22;11046;49.558;8.674;2023-01-29T14:35:20;1.90;90.70
21770;DHT22;11046;49.558;8.674;2023-01-29T14:38:26;1.80;90.90
21770;DHT22;11046;49.558;8.674;2023-01-29T14:41:32;1.80;91.00
21770;DHT22;11046;49.558;8.674;2023-01-29T14:47:55;1.80;90.90
21770;DHT22;11046;49.558;8.674;2023-01-29T14:50:58;1.70;90.90
21770;DHT22;11046;49.558;8.674;2023-01-29T14:54:25;1.70;91.00
21770;DHT22;11046;49.558;8.674;2023-01-29T14:57:28;1.70;90.90
21770;DHT22;11046;49.558;8.674;2023-01-29T15:00:33;1.60;90.90
21770;DHT22;11046;49.558;8.674;2023-01-29T15:07:14;1.50;91.00
21770;DHT22;11046;49.558;8.674;2023-01-29T15:10:25;1.50;91.00
21770;DHT22;11046;49.558;8.674;2023-01-29T15:23:31;1.50;91.00
21770;DHT22;11046;49.558;8.674;2023-01-29T15:26:34;1.40;91.40
21770;DHT22;11046;49.558;8.674;2023-01-29T15:29:37;1.30;91.10
21770;DHT22;11046;49.558;8.674;2023-01-29T15:32:38;1.30;91.10
21770;DHT22;11046;49.558;8.674;2023-01-29T15:35:40;1.30;91.10
21770;DHT22;11046;49.558;8.674;2023-01-29T15:38:41;1.20;91.50
21770;DHT22;11046;49.558;8.674;2023-01-29T15:41:43;1.20;91.10
21770;DHT22;11046;49.558;8.674;2023-01-29T15:44:44;1.20;91.10
21770;DHT22;11046;49.558;8.674;2023-01-29T15:47:46;1.20;91.20
21770;DHT22;11046;49.558;8.674;2023-01-29T15:50:47;1.20;91.10
21770;DHT22;11046;49.558;8.674;2023-01-29T15:53:52;1.10;91.10
21770;DHT22;11046;49.558;8.674;2023-01-29T15:56:53;1.10;91.20
21770;DHT22;11046;49.558;8.674;2023-01-29T15:59:56;1.00;91.10
21770;DHT22;11046;49.558;8.674;2023-01-29T16:02:58;1.00;91.30
21770;DHT22;11046;49.558;8.674;2023-01-29T16:06:02;0.90;91.30
21770;DHT22;11046;49.558;8.674;2023-01-29T16:09:04;0.90;91.30
21770;DHT22;11046;49.558;8.674;2023-01-29T16:12:05;0.90;91.30
21770;DHT22;11046;49.558;8.674;2023-01-29T16:15:14;0.90;91.30
21770;DHT22;11046;49.558;8.674;2023-01-29T16:18:23;0.80;91.30
21770;DHT22;11046;49.558;8.674;2023-01-29T16:24:33;0.70;91.40
21770;DHT22;11046;49.558;8.674;2023-01-29T16:27:34;0.70;91.40
21770;DHT22;11046;49.558;8.674;2023-01-29T16:30:36;0.70;91.40
21770;DHT22;11046;49.558;8.674;2023-01-29T16:33:39;0.60;91.40
21770;DHT22;11046;49.558;8.674;2023-01-29T16:36:45;0.60;91.40
21770;DHT22;11046;49.558;8.674;2023-01-29T16:39:48;0.50;91.50
21770;DHT22;11046;49.558;8.674;2023-01-29T16:46:35;0.40;91.80
21770;DHT22;11046;49.558;8.674;2023-01-29T16:52:36;0.30;91.70
21770;DHT22;11046;49.558;8.674;2023-01-29T16:55:40;0.20;91.70
21770;DHT22;11046;49.558;8.674;2023-01-29T16:58:41;0.30;91.80
21770;DHT22;11046;49.558;8.674;2023-01-29T17:01:48;0.20;91.80
21770;DHT22;11046;49.558;8.674;2023-01-29T17:04:51;0.10;91.80
21770;DHT22;11046;49.558;8.674;2023-01-29T17:07:55;0.10;91.90
21770;DHT22;11046;49.558;8.674;2023-01-29T17:10:57;0.10;92.00
21770;DHT22;11046;49.558;8.674;2023-01-29T17:13:58;-0.10;91.90
21770;DHT22;11046;49.558;8.674;2023-01-29T17:17:13;-0.20;92.10
21770;DHT22;11046;49.558;8.674;2023-01-29T17:20:15;-0.20;92.20
21770;DHT22;11046;49.558;8.674;2023-01-29T17:23:15;-0.20;92.10
21770;DHT22;11046;49.558;8.674;2023-01-29T17:26:16;-0.30;92.10
21770;DHT22;11046;49.558;8.674;2023-01-29T17:29:22;-0.30;92.30
21770;DHT22;11046;49.558;8.674;2023-01-29T17:32:24;-0.30;92.30
21770;DHT22;11046;49.558;8.674;2023-01-29T17:35:27;-0.40;92.40
21770;DHT22;11046;49.558;8.674;2023-01-29T17:38:27;-0.50;92.40
21770;DHT22;11046;49.558;8.674;2023-01-29T17:41:28;-0.50;92.50
21770;DHT22;11046;49.558;8.674;2023-01-29T17:44:30;-0.50;92.50
21770;DHT22;11046;49.558;8.674;2023-01-29T17:47:31;-0.50;92.50
21770;DHT22;11046;49.558;8.674;2023-01-29T17:50:33;-0.60;92.60
21770;DHT22;11046;49.558;8.674;2023-01-29T17:53:34;-0.60;92.70
21770;DHT22;11046;49.558;8.674;2023-01-29T17:56:35;-0.60;92.60
21770;DHT22;11046;49.558;8.674;2023-01-29T17:59:36;-0.60;92.70
21770;DHT22;11046;49.558;8.674;2023-01-29T18:02:36;-0.60;92.80
21770;DHT22;11046;49.558;8.674;2023-01-29T18:05:37;-0.60;92.80
21770;DHT22;11046;49.558;8.674;2023-01-29T18:08:41;-0.60;92.80
21770;DHT22;11046;49.558;8.674;2023-01-29T18:11:45;-0.70;92.90
21770;DHT22;11046;49.558;8.674;2023-01-29T18:14:47;-0.70;93.00
21770;DHT22;11046;49.558;8.674;2023-01-29T18:17:47;-0.70;93.00
21770;DHT22;11046;49.558;8.674;2023-01-29T18:20:48;-0.80;93.10
21770;DHT22;11046;49.558;8.674;2023-01-29T18:23:49;-0.70;93.20
21770;DHT22;11046;49.558;8.674;2023-01-29T18:26:49;-0.70;93.20
21770;DHT22;11046;49.558;8.674;2023-01-29T18:29:50;-0.80;93.10
21770;DHT22;11046;49.558;8.674;2023-01-29T18:32:51;-0.80;93.20
21770;DHT22;11046;49.558;8.674;2023-01-29T18:35:52;-0.90;93.20
21770;DHT22;11046;49.558;8.674;2023-01-29T18:38:56;-0.90;93.40
21770;DHT22;11046;49.558;8.674;2023-01-29T18:41:57;-1.00;93.50
21770;DHT22;11046;49.558;8.674;2023-01-29T18:44:57;-0.90;93.60
21770;DHT22;11046;49.558;8.674;2023-01-29T18:47:58;-0.90;93.60
21770;DHT22;11046;49.558;8.674;2023-01-29T18:50:59;-0.90;93.60
21770;DHT22;11046;49.558;8.674;2023-01-29T18:54:00;-1.00;93.70
21770;DHT22;11046;49.558;8.674;2023-01-29T18:57:00;-1.00;93.70
21770;DHT22;11046;49.558;8.674;2023-01-29T19:00:01;-1.00;93.70
21770;DHT22;11046;49.558;8.674;2023-01-29T19:03:02;-1.00;93.80
21770;DHT22;11046;49.558;8.674;2023-01-29T19:06:05;-1.00;93.80
21770;DHT22;11046;49.558;8.674;2023-01-29T19:09:06;-1.10;93.80
21770;DHT22;11046;49.558;8.674;2023-01-29T19:12:07;-1.10;93.90
21770;DHT22;11046;49.558;8.674;2023-01-29T19:15:08;-1.10;94.00
21770;DHT22;11046;49.558;8.674;2023-01-29T19:18:09;-1.10;94.00
21770;DHT22;11046;49.558;8.674;2023-01-29T19:21:14;-1.10;94.10
21770;DHT22;11046;49.558;8.674;2023-01-29T19:24:15;-1.10;94.20
21770;DHT22;11046;49.558;8.674;2023-01-29T19:27:16;-1.00;94.30
21770;DHT22;11046;49.558;8.674;2023-01-29T19:30:16;-1.00;94.30
21770;DHT22;11046;49.558;8.674;2023-01-29T19:33:17;-1.00;94.30
21770;DHT22;11046;49.558;8.674;2023-01-29T19:36:17;-1.00;94.30
21770;DHT22;11046;49.558;8.674;2023-01-29T19:39:18;-1.10;94.30
21770;DHT22;11046;49.558;8.674;2023-01-29T19:42:19;-1.10;94.40
21770;DHT22;11046;49.558;8.674;2023-01-29T19:45:20;-1.10;94.40
21770;DHT22;11046;49.558;8.674;2023-01-29T19:48:25;-1.10;94.70
21770;DHT22;11046;49.558;8.674;2023-01-29T19:51:26;-1.10;94.40
21770;DHT22;11046;49.558;8.674;2023-01-29T19:54:27;-1.10;94.50
21770;DHT22;11046;49.558;8.674;2023-01-29T19:57:28;-1.10;94.40
21770;DHT22;11046;49.558;8.674;2023-01-29T20:00:30;-1.20;94.40
21770;DHT22;11046;49.558;8.674;2023-01-29T20:03:31;-1.20;94.50
21770;DHT22;11046;49.558;8.674;2023-01-29T20:06:31;-1.20;94.90
21770;DHT22;11046;49.558;8.674;2023-01-29T20:09:32;-1.20;94.50
21770;DHT22;11046;49.558;8.674;2023-01-29T20:12:33;-1.20;94.60
21770;DHT22;11046;49.558;8.674;2023-01-29T20:15:34;-1.30;94.70
21770;DHT22;11046;49.558;8.674;2023-01-29T20:18:34;-1.20;94.80
21770;DHT22;11046;49.558;8.674;2023-01-29T20:21:35;-1.20;94.70
21770;DHT22;11046;49.558;8.674;2023-01-29T20:24:36;-1.30;94.70
21770;DHT22;11046;49.558;8.674;2023-01-29T20:27:41;-1.30;94.80
21770;DHT22;11046;49.558;8.674;2023-01-29T20:30:43;-1.20;94.70
21770;DHT22;11046;49.558;8.674;2023-01-29T20:33:44;-1.30;94.70
21770;DHT22;11046;49.558;8.674;2023-01-29T20:36:44;-1.40;94.90
21770;DHT22;11046;49.558;8.674;2023-01-29T20:39:45;-1.40;94.90
21770;DHT22;11046;49.558;8.674;2023-01-29T20:42:45;-1.40;94.90
21770;DHT22;11046;49.558;8.674;2023-01-29T20:45:46;-1.50;94.90
21770;DHT22;11046;49.558;8.674;2023-01-29T20:48:47;-1.50;95.10
21770;DHT22;11046;49.558;8.674;2023-01-29T20:51:48;-1.40;95.10
21770;DHT22;11046;49.558;8.674;2023-01-29T20:54:49;-1.50;95.10
21770;DHT22;11046;49.558;8.674;2023-01-29T20:57:49;-1.50;95.20
21770;DHT22;11046;49.558;8.674;2023-01-29T21:00:50;-1.50;95.20
21770;DHT22;11046;49.558;8.674;2023-01-29T21:03:51;-1.50;95.30
21770;DHT22;11046;49.558;8.674;2023-01-29T21:06:52;-1.40;95.40
21770;DHT22;11046;49.558;8.674;2023-01-29T21:09:52;-1.40;95.40
21770;DHT22;11046;49.558;8.674;2023-01-29T21:12:53;-1.30;95.50
21770;DHT22;11046;49.558;8.674;2023-01-29T21:15:53;-1.20;95.40
21770;DHT22;11046;49.558;8.674;2023-01-29T21:18:58;-1.10;95.50
21770;DHT22;11046;49.558;8.674;2023-01-29T21:21:58;-1.00;95.50
21770;DHT22;11046;49.558;8.674;2023-01-29T21:24:59;-0.90;95.50
21770;DHT22;11046;49.558;8.674;2023-01-29T21:28:00;-0.90;95.50
21770;DHT22;11046;49.558;8.674;2023-01-29T21:31:07;-0.90;95.60